createdAt,value
2022-11-29T00:01:20.963Z,7.30
2022-11-29T00:03:47.623Z,7.28
2022-11-29T00:06:19.599Z,7.28
2022-11-29T00:08:46.802Z,7.27
2022-11-29T00:11:37.218Z,7.26
2022-11-29T00:14:03.955Z,7.19
2022-11-29T00:16:30.681Z,7.17
2022-11-29T00:18:57.224Z,7.21
2022-11-29T00:21:23.748Z,7.19
2022-11-29T00:23:50.287Z,7.19
2022-11-29T00:26:16.855Z,7.16
2022-11-29T00:28:43.439Z,7.16
2022-11-29T00:31:19.649Z,7.17
2022-11-29T00:33:46.631Z,7.11
2022-11-29T00:36:14.057Z,7.15
2022-11-29T00:38:41.300Z,7.13
2022-11-29T00:41:09.169Z,7.09
2022-11-29T00:43:36.154Z,7.12
2022-11-29T00:46:03.884Z,7.12
2022-11-29T00:48:31.284Z,7.09
2022-11-29T00:50:58.164Z,7.11
2022-11-29T00:53:25.060Z,7.12
2022-11-29T00:55:52.919Z,7.13
2022-11-29T00:58:20.215Z,7.13
2022-11-29T01:00:47.596Z,7.15
2022-11-29T01:03:15.104Z,7.14
2022-11-29T01:05:42.931Z,7.16
2022-11-29T01:08:10.830Z,7.10
2022-11-29T01:10:37.352Z,7.12
2022-11-29T01:13:03.898Z,7.15
2022-11-29T01:15:30.455Z,7.12
2022-11-29T01:17:56.926Z,7.10
2022-11-29T01:20:23.447Z,7.09
2022-11-29T01:22:50.063Z,7.06
2022-11-29T01:25:16.839Z,7.06
2022-11-29T01:27:43.310Z,7.04
2022-11-29T01:30:10.341Z,7.02
2022-11-29T01:32:37.104Z,7.00
2022-11-29T01:35:04.824Z,7.00
2022-11-29T01:37:32.023Z,6.97
2022-11-29T01:39:58.575Z,6.94
2022-11-29T01:42:25.260Z,6.94
2022-11-29T01:45:25.526Z,6.94
2022-11-29T01:47:56.787Z,6.92
2022-11-29T01:50:23.773Z,6.93
2022-11-29T01:52:50.630Z,6.90
2022-11-29T01:55:18.286Z,6.85
2022-11-29T01:57:45.187Z,6.84
2022-11-29T02:00:15.026Z,6.85
2022-11-29T02:02:50.786Z,6.85
2022-11-29T02:05:19.362Z,6.82
2022-11-29T02:07:51.040Z,6.80
2022-11-29T02:10:18.059Z,6.78
2022-11-29T02:13:33.854Z,6.84
2022-11-29T02:16:13.042Z,6.81
2022-11-29T02:18:54.051Z,6.77
2022-11-29T02:21:58.968Z,6.72
2022-11-29T02:25:00.954Z,6.70
2022-11-29T02:27:43.027Z,6.63
2022-11-29T02:30:16.823Z,6.78
2022-11-29T02:32:58.509Z,6.53
2022-11-29T02:35:52.362Z,6.54
2022-11-29T02:38:25.698Z,6.53
2022-11-29T02:41:21.835Z,6.51
2022-11-29T02:44:07.089Z,6.42
2022-11-29T02:47:14.780Z,6.49
2022-11-29T02:50:08.838Z,6.55
2022-11-29T02:52:47.811Z,6.47
2022-11-29T02:55:47.052Z,6.57
2022-11-29T02:58:47.511Z,6.58
2022-11-29T03:01:24.025Z,6.60
2022-11-29T03:04:14.070Z,6.61
2022-11-29T03:07:01.634Z,6.57
2022-11-29T03:09:54.102Z,6.60
2022-11-29T03:12:49.841Z,6.60
2022-11-29T03:15:28.704Z,6.54
2022-11-29T03:18:03.481Z,6.50
2022-11-29T03:20:51.664Z,6.53
2022-11-29T03:23:34.266Z,6.54
2022-11-29T03:26:24.408Z,6.49
2022-11-29T03:29:07.290Z,6.43
2022-11-29T03:31:49.362Z,6.40
2022-11-29T03:34:15.708Z,6.60
2022-11-29T03:36:51.301Z,6.46
2022-11-29T03:39:24.581Z,6.37
2022-11-29T03:41:58.551Z,6.34
2022-11-29T03:44:28.361Z,6.38
2022-11-29T03:47:03.375Z,6.33
2022-11-29T03:49:44.969Z,6.37
2022-11-29T03:52:35.600Z,6.42
2022-11-29T03:55:11.024Z,6.33
2022-11-29T03:57:53.317Z,6.21
2022-11-29T04:00:20.523Z,6.11
2022-11-29T04:03:17.083Z,6.15
2022-11-29T04:06:02.268Z,6.13
2022-11-29T04:08:59.864Z,6.05
2022-11-29T04:11:58.674Z,6.03
2022-11-29T04:14:47.438Z,6.02
2022-11-29T04:17:41.343Z,6.06
2022-11-29T04:20:26.160Z,6.10
2022-11-29T04:23:37.549Z,6.15
2022-11-29T04:26:30.902Z,6.09
2022-11-29T04:29:33.950Z,6.10
2022-11-29T04:32:21.321Z,6.09
2022-11-29T04:35:03.464Z,6.02
2022-11-29T04:37:56.271Z,6.08
2022-11-29T04:41:00.394Z,6.07
2022-11-29T04:44:06.198Z,6.09
2022-11-29T04:46:59.929Z,6.10
2022-11-29T04:49:29.239Z,6.05
2022-11-29T04:52:41.947Z,6.09
2022-11-29T04:55:35.396Z,6.06
2022-11-29T04:58:28.439Z,6.08
2022-11-29T05:01:14.946Z,6.08
2022-11-29T05:04:00.237Z,5.88
2022-11-29T05:06:42.571Z,6.03
2022-11-29T05:09:35.805Z,5.99
2022-11-29T05:12:18.733Z,5.94
2022-11-29T05:15:17.493Z,6.01
2022-11-29T05:18:19.511Z,5.95
2022-11-29T05:21:24.183Z,5.98
2022-11-29T05:24:06.802Z,5.91
2022-11-29T05:26:50.249Z,5.90
2022-11-29T05:29:26.067Z,5.96
2022-11-29T05:32:28.540Z,5.97
2022-11-29T05:35:13.675Z,5.99
2022-11-29T05:37:56.773Z,5.95
2022-11-29T05:40:41.160Z,5.98
2022-11-29T05:43:46.609Z,5.92
2022-11-29T05:46:29.049Z,5.85
2022-11-29T05:49:13.950Z,5.93
2022-11-29T05:51:50.289Z,5.95
2022-11-29T05:54:29.404Z,5.90
2022-11-29T05:57:23.057Z,5.93
2022-11-29T05:59:51.182Z,5.92
2022-11-29T06:02:26.557Z,5.96
2022-11-29T06:05:03.581Z,5.90
2022-11-29T06:07:40.800Z,5.89
2022-11-29T06:10:17.626Z,5.98
2022-11-29T06:13:36.485Z,6.07
2022-11-29T06:16:24.900Z,6.03
2022-11-29T06:18:57.356Z,6.01
2022-11-29T06:22:05.727Z,6.07
2022-11-29T06:24:51.762Z,6.04
2022-11-29T06:27:32.289Z,6.07
2022-11-29T06:30:15.806Z,5.99
2022-11-29T06:33:01.106Z,6.05
2022-11-29T06:35:47.095Z,6.02
2022-11-29T06:38:23.463Z,6.05
2022-11-29T06:40:51.019Z,5.98
2022-11-29T06:43:17.966Z,5.99
2022-11-29T06:45:50.135Z,5.95
2022-11-29T06:48:25.590Z,5.98
2022-11-29T06:51:00.155Z,5.96
2022-11-29T06:53:47.966Z,5.98
2022-11-29T06:56:33.607Z,5.98
2022-11-29T06:59:17.823Z,5.98
2022-11-29T07:02:22.456Z,5.94
2022-11-29T07:05:19.144Z,5.99
2022-11-29T07:07:48.327Z,5.95
2022-11-29T07:10:18.629Z,5.99
2022-11-29T07:12:47.674Z,5.90
2022-11-29T07:15:16.946Z,5.91
2022-11-29T07:18:09.409Z,6.00
2022-11-29T07:20:45.598Z,5.94
2022-11-29T07:23:36.010Z,5.92
2022-11-29T07:26:15.244Z,5.90
2022-11-29T07:29:26.218Z,5.91
2022-11-29T07:32:03.442Z,5.89
2022-11-29T07:34:43.625Z,5.91
2022-11-29T07:37:28.889Z,5.86
2022-11-29T07:40:05.764Z,5.87
2022-11-29T07:43:08.751Z,5.92
2022-11-29T07:45:38.319Z,5.89
2022-11-29T07:48:05.546Z,5.89
2022-11-29T07:50:32.074Z,5.86
2022-11-29T07:52:59.930Z,5.87
2022-11-29T07:55:27.526Z,5.89
2022-11-29T07:57:54.122Z,5.87
2022-11-29T08:00:21.707Z,5.89
2022-11-29T08:02:49.721Z,5.91
2022-11-29T08:05:16.503Z,5.92
2022-11-29T08:07:43.576Z,5.87
2022-11-29T08:10:13.918Z,5.91
2022-11-29T08:12:45.142Z,5.87
2022-11-29T08:15:12.430Z,5.89
2022-11-29T08:17:39.444Z,5.90
2022-11-29T08:20:07.298Z,5.87
2022-11-29T08:22:33.807Z,5.90
2022-11-29T08:25:00.407Z,5.89
2022-11-29T08:27:27.549Z,5.89
2022-11-29T08:29:54.086Z,5.91
2022-11-29T08:32:20.647Z,5.93
2022-11-29T08:34:47.401Z,5.97
2022-11-29T08:37:14.843Z,5.95
2022-11-29T08:39:41.493Z,5.95
2022-11-29T08:42:08.081Z,5.90
2022-11-29T08:44:34.691Z,5.94
2022-11-29T08:47:19.689Z,5.97
2022-11-29T08:50:04.098Z,5.97
2022-11-29T08:52:55.457Z,5.97
2022-11-29T08:55:24.875Z,5.98
2022-11-29T08:57:51.959Z,5.99
2022-11-29T09:00:21.123Z,6.02
2022-11-29T09:02:48.245Z,6.02
2022-11-29T09:05:15.791Z,6.04
2022-11-29T09:07:42.905Z,6.06
2022-11-29T09:10:11.240Z,6.09
2022-11-29T09:12:39.314Z,6.08
2022-11-29T09:15:09.006Z,6.14
2022-11-29T09:17:35.500Z,6.16
2022-11-29T09:20:02.187Z,6.18
2022-11-29T09:22:28.711Z,6.18
2022-11-29T09:24:55.234Z,6.22
2022-11-29T09:27:21.738Z,6.23
2022-11-29T09:29:48.266Z,6.26
2022-11-29T09:32:14.734Z,6.25
2022-11-29T09:34:42.237Z,6.23
2022-11-29T09:37:08.967Z,6.25
2022-11-29T09:39:35.428Z,6.30
2022-11-29T09:42:21.302Z,6.35
2022-11-29T09:44:59.266Z,6.35
2022-11-29T09:47:33.051Z,6.37
2022-11-29T09:50:27.169Z,6.39
2022-11-29T09:52:59.505Z,6.39
2022-11-29T09:55:59.412Z,6.43
2022-11-29T09:58:30.628Z,6.41
2022-11-29T10:01:02.478Z,6.42
2022-11-29T10:03:31.859Z,6.49
2022-11-29T10:06:17.553Z,6.47
2022-11-29T10:08:49.927Z,6.45
2022-11-29T10:11:24.114Z,6.43
2022-11-29T10:14:13.764Z,6.51
2022-11-29T10:16:59.430Z,6.48
2022-11-29T10:19:38.219Z,6.49
2022-11-29T10:22:27.363Z,6.52
2022-11-29T10:24:59.057Z,6.51
2022-11-29T10:27:29.411Z,6.51
2022-11-29T10:29:58.057Z,6.53
2022-11-29T10:32:25.721Z,6.51
2022-11-29T10:34:52.254Z,6.46
2022-11-29T10:37:23.640Z,6.54
2022-11-29T10:39:58.664Z,6.51
2022-11-29T10:42:46.972Z,6.50
2022-11-29T10:45:20.745Z,6.46
2022-11-29T10:47:49.415Z,6.49
2022-11-29T10:50:31.244Z,6.53
2022-11-29T10:53:09.484Z,6.51
2022-11-29T10:55:45.669Z,6.54
2022-11-29T10:58:16.427Z,6.50
2022-11-29T11:01:07.072Z,6.55
2022-11-29T11:03:53.552Z,6.56
2022-11-29T11:06:26.722Z,6.58
2022-11-29T11:08:55.732Z,6.60
2022-11-29T11:11:25.022Z,6.64
2022-11-29T11:14:03.656Z,6.64
2022-11-29T11:16:35.580Z,6.67
2022-11-29T11:19:30.574Z,6.69
2022-11-29T11:22:01.856Z,6.66
2022-11-29T11:24:32.309Z,6.65
2022-11-29T11:27:00.183Z,6.65
2022-11-29T11:29:51.876Z,6.70
2022-11-29T11:32:20.001Z,6.67
2022-11-29T11:35:00.736Z,6.70
2022-11-29T11:37:32.269Z,6.72
2022-11-29T11:40:17.932Z,6.70
2022-11-29T11:42:45.004Z,6.68
2022-11-29T11:45:11.420Z,6.74
2022-11-29T11:47:47.826Z,6.73
2022-11-29T11:50:40.264Z,6.69
2022-11-29T11:53:18.161Z,6.75
2022-11-29T11:56:13.371Z,6.78
2022-11-29T11:58:51.709Z,6.83
2022-11-29T12:01:30.815Z,6.83
2022-11-29T12:04:02.869Z,6.80
2022-11-29T12:06:55.719Z,6.83
2022-11-29T12:09:42.022Z,6.82
2022-11-29T12:12:29.850Z,6.86
2022-11-29T12:15:07.046Z,6.86
2022-11-29T12:17:54.881Z,6.88
2022-11-29T12:20:28.225Z,6.88
2022-11-29T12:23:12.659Z,6.88
2022-11-29T12:26:02.897Z,6.88
2022-11-29T12:28:35.038Z,6.90
2022-11-29T12:31:13.927Z,6.89
2022-11-29T12:33:57.823Z,6.93
2022-11-29T12:36:49.767Z,6.92
2022-11-29T12:39:30.436Z,6.94
2022-11-29T12:42:15.919Z,6.93
2022-11-29T12:44:50.826Z,6.97
2022-11-29T12:47:55.924Z,6.98
2022-11-29T12:51:01.702Z,6.98
2022-11-29T12:53:59.027Z,6.99
2022-11-29T12:56:37.048Z,6.99
2022-11-29T12:59:21.807Z,7.03
2022-11-29T13:01:51.260Z,7.04
2022-11-29T13:04:29.645Z,7.05
2022-11-29T13:07:21.144Z,7.08
2022-11-29T13:09:55.216Z,7.02
2022-11-29T13:12:41.586Z,7.03
2022-11-29T13:15:41.661Z,7.08
2022-11-29T13:18:40.575Z,7.06
2022-11-29T13:21:32.815Z,7.05
2022-11-29T13:24:13.862Z,7.13
2022-11-29T13:26:41.867Z,7.04
2022-11-29T13:29:15.479Z,7.07
2022-11-29T13:31:42.896Z,7.06
2022-11-29T13:34:13.802Z,7.10
2022-11-29T13:36:42.986Z,7.09
2022-11-29T13:39:15.384Z,7.11
2022-11-29T13:41:50.758Z,7.10
2022-11-29T13:44:32.269Z,7.13
2022-11-29T13:47:10.779Z,7.09
2022-11-29T13:50:03.598Z,7.15
2022-11-29T13:52:44.677Z,7.14
2022-11-29T13:55:23.367Z,7.17
2022-11-29T13:58:15.569Z,7.10
2022-11-29T14:00:42.593Z,7.17
2022-11-29T14:03:21.366Z,7.19
2022-11-29T14:05:50.632Z,7.18
2022-11-29T14:08:55.181Z,7.19
2022-11-29T14:11:36.118Z,7.22
2022-11-29T14:14:08.533Z,7.17
2022-11-29T14:16:44.498Z,7.20
2022-11-29T14:19:33.826Z,7.23
2022-11-29T14:22:06.648Z,7.21
2022-11-29T14:24:33.308Z,7.23
2022-11-29T14:27:14.565Z,7.23
2022-11-29T14:29:49.984Z,7.25
2022-11-29T14:32:45.919Z,7.22
2022-11-29T14:35:13.016Z,7.25
2022-11-29T14:37:56.851Z,7.22
2022-11-29T14:40:23.255Z,7.25
2022-11-29T14:42:50.968Z,7.24
2022-11-29T14:45:30.831Z,7.22
2022-11-29T14:47:58.071Z,7.25
2022-11-29T14:50:37.250Z,7.28
2022-11-29T14:53:06.846Z,7.27
2022-11-29T14:55:38.520Z,7.24
2022-11-29T14:58:16.344Z,7.20
2022-11-29T15:00:48.870Z,7.25
2022-11-29T15:03:25.041Z,7.27
2022-11-29T15:06:09.810Z,7.29
2022-11-29T15:08:57.295Z,7.29
2022-11-29T15:11:57.409Z,7.28
2022-11-29T15:14:52.742Z,7.31
2022-11-29T15:17:38.602Z,7.28
2022-11-29T15:20:42.427Z,7.32
2022-11-29T15:23:15.156Z,7.31
2022-11-29T15:25:52.334Z,7.32
2022-11-29T15:28:24.982Z,7.32
2022-11-29T15:31:03.838Z,7.33
2022-11-29T15:33:30.886Z,7.28
2022-11-29T15:36:05.501Z,7.31
2022-11-29T15:38:42.769Z,7.30
2022-11-29T15:41:29.514Z,7.32
2022-11-29T15:44:04.548Z,7.31
2022-11-29T15:46:33.673Z,7.29
2022-11-29T15:49:26.468Z,7.32
2022-11-29T15:51:58.088Z,7.28
2022-11-29T15:54:35.799Z,7.30
2022-11-29T15:57:24.587Z,7.28
2022-11-29T15:59:58.966Z,7.27
2022-11-29T16:02:32.048Z,7.29
2022-11-29T16:05:03.291Z,7.24
2022-11-29T16:07:32.592Z,7.27
2022-11-29T16:10:10.926Z,7.27
2022-11-29T16:12:53.771Z,7.27
2022-11-29T16:15:29.737Z,7.26
2022-11-29T16:17:56.345Z,7.25
2022-11-29T16:20:25.024Z,7.25
2022-11-29T16:23:14.091Z,7.26
2022-11-29T16:26:01.879Z,7.28
2022-11-29T16:28:36.472Z,7.26
2022-11-29T16:31:04.862Z,7.23
2022-11-29T16:33:32.085Z,7.23
2022-11-29T16:36:22.910Z,7.26
2022-11-29T16:39:07.832Z,7.23
2022-11-29T16:41:38.610Z,7.23
2022-11-29T16:44:15.674Z,7.23
2022-11-29T16:46:42.256Z,7.22
2022-11-29T16:49:33.302Z,7.25
2022-11-29T16:52:00.553Z,7.22
2022-11-29T16:54:33.943Z,7.22
2022-11-29T16:57:05.145Z,7.21
2022-11-29T16:59:32.497Z,7.24
2022-11-29T17:01:59.363Z,7.23
2022-11-29T17:04:26.406Z,7.24
2022-11-29T17:06:54.702Z,7.22
2022-11-29T17:09:26.764Z,7.18
2022-11-29T17:11:54.437Z,7.23
2022-11-29T17:14:21.149Z,7.24
2022-11-29T17:16:49.407Z,7.24
2022-11-29T17:19:16.485Z,7.21
2022-11-29T17:21:43.106Z,7.22
2022-11-29T17:24:12.179Z,7.20
2022-11-29T17:26:38.989Z,7.21
2022-11-29T17:29:05.614Z,7.21
2022-11-29T17:31:32.421Z,7.21
2022-11-29T17:34:00.642Z,7.21
2022-11-29T17:36:27.601Z,7.22
2022-11-29T17:38:54.353Z,7.22
2022-11-29T17:41:23.543Z,7.21
2022-11-29T17:43:51.318Z,7.19
2022-11-29T17:46:32.105Z,7.21
2022-11-29T17:48:59.893Z,7.19
2022-11-29T17:51:51.059Z,7.17
2022-11-29T17:54:13.322Z,7.11
2022-11-29T17:56:39.809Z,7.12
2022-11-29T17:59:06.339Z,7.10
2022-11-29T18:01:35.622Z,7.12
2022-11-29T18:04:04.832Z,7.11
2022-11-29T18:06:35.684Z,7.09
2022-11-29T18:09:03.788Z,7.08
2022-11-29T18:11:46.800Z,7.10
2022-11-29T18:14:19.758Z,7.07
2022-11-29T18:16:46.512Z,7.20
2022-11-29T18:19:16.370Z,7.07
2022-11-29T18:21:43.419Z,7.06
2022-11-29T18:24:10.093Z,7.10
2022-11-29T18:26:38.212Z,7.10
2022-11-29T18:29:06.361Z,7.06
2022-11-29T18:31:35.146Z,7.04
2022-11-29T18:34:03.483Z,7.05
2022-11-29T18:36:33.198Z,7.01
2022-11-29T18:39:02.285Z,7.03
2022-11-29T18:41:30.223Z,7.01
2022-11-29T18:44:11.361Z,6.99
2022-11-29T18:46:40.344Z,6.97
2022-11-29T18:49:08.741Z,6.94
2022-11-29T18:51:36.974Z,6.94
2022-11-29T18:54:04.137Z,6.90
2022-11-29T18:56:32.755Z,6.89
2022-11-29T18:59:01.087Z,6.85
2022-11-29T19:01:29.962Z,6.81
2022-11-29T19:03:59.449Z,6.83
2022-11-29T19:06:32.831Z,6.88
2022-11-29T19:09:05.189Z,6.80
2022-11-29T19:11:32.951Z,6.79
2022-11-29T19:14:03.151Z,6.75
2022-11-29T19:16:32.298Z,6.75
2022-11-29T19:19:00.641Z,6.81
2022-11-29T19:21:29.655Z,6.79
2022-11-29T19:23:58.395Z,6.77
2022-11-29T19:26:27.485Z,6.77
2022-11-29T19:28:54.671Z,6.83
2022-11-29T19:31:24.826Z,6.78
2022-11-29T19:33:52.651Z,6.74
2022-11-29T19:36:28.602Z,6.76
2022-11-29T19:38:56.118Z,6.72
2022-11-29T19:41:25.821Z,6.75
2022-11-29T19:43:52.442Z,6.66
2022-11-29T19:46:21.746Z,6.68
2022-11-29T19:48:49.042Z,6.62
2022-11-29T19:51:18.909Z,6.64
2022-11-29T19:53:46.915Z,6.67
2022-11-29T19:56:17.363Z,6.67
2022-11-29T19:58:44.377Z,6.67
2022-11-29T20:01:17.347Z,6.68
2022-11-29T20:03:45.076Z,6.70
2022-11-29T20:06:13.470Z,6.67
2022-11-29T20:08:40.452Z,6.61
2022-11-29T20:11:18.997Z,6.60
2022-11-29T20:13:47.751Z,6.58
2022-11-29T20:16:18.139Z,6.57
2022-11-29T20:18:50.647Z,6.56
2022-11-29T20:21:22.042Z,6.54
2022-11-29T20:23:48.943Z,6.56
2022-11-29T20:26:18.290Z,6.57
2022-11-29T20:28:46.295Z,6.56
2022-11-29T20:31:21.307Z,6.61
2022-11-29T20:33:48.838Z,6.60
2022-11-29T20:36:39.943Z,6.64
2022-11-29T20:39:36.381Z,6.62
2022-11-29T20:42:11.910Z,6.62
2022-11-29T20:44:46.180Z,6.59
2022-11-29T20:47:24.378Z,6.63
2022-11-29T20:49:51.325Z,6.62
2022-11-29T20:52:36.537Z,6.61
2022-11-29T20:55:04.569Z,6.57
2022-11-29T20:57:31.119Z,6.59
2022-11-29T20:59:57.627Z,6.60
2022-11-29T21:02:24.765Z,6.61
2022-11-29T21:04:51.537Z,6.59
2022-11-29T21:07:18.217Z,6.61
2022-11-29T21:09:45.148Z,6.60
2022-11-29T21:12:12.259Z,6.59
2022-11-29T21:14:38.998Z,6.59
2022-11-29T21:17:05.799Z,6.58
2022-11-29T21:19:32.488Z,6.58
2022-11-29T21:22:14.464Z,6.57
2022-11-29T21:25:15.749Z,6.61
2022-11-29T21:27:42.506Z,6.60
2022-11-29T21:30:21.114Z,6.62
2022-11-29T21:32:48.149Z,6.62
2022-11-29T21:35:15.064Z,6.64
2022-11-29T21:37:42.912Z,6.64
2022-11-29T21:40:10.919Z,6.65
2022-11-29T21:42:37.961Z,6.66
2022-11-29T21:45:08.233Z,6.60
2022-11-29T21:47:39.879Z,6.65
2022-11-29T21:50:07.147Z,6.66
2022-11-29T21:52:33.747Z,6.64
2022-11-29T21:55:00.235Z,6.64
2022-11-29T21:57:26.737Z,6.64
2022-11-29T21:59:53.681Z,6.60
2022-11-29T22:02:20.533Z,6.63
2022-11-29T22:04:47.298Z,6.61
2022-11-29T22:07:13.896Z,6.65
2022-11-29T22:09:40.418Z,6.66
2022-11-29T22:12:31.795Z,6.64
2022-11-29T22:14:53.462Z,6.64
2022-11-29T22:17:19.919Z,6.66
2022-11-29T22:19:46.444Z,6.66
2022-11-29T22:22:13.173Z,6.68
2022-11-29T22:24:39.626Z,6.63
2022-11-29T22:27:06.332Z,6.68
2022-11-29T22:29:32.925Z,6.64
2022-11-29T22:32:01.031Z,6.65
2022-11-29T22:34:28.077Z,6.67
2022-11-29T22:36:54.822Z,6.68
2022-11-29T22:39:22.530Z,6.69
2022-11-29T22:41:53.845Z,6.70
2022-11-29T22:44:21.507Z,6.69
2022-11-29T22:46:48.116Z,6.70
2022-11-29T22:49:14.761Z,6.72
2022-11-29T22:51:41.308Z,6.70
2022-11-29T22:54:10.335Z,6.70
2022-11-29T22:56:39.230Z,6.70
2022-11-29T22:59:06.016Z,6.70
2022-11-29T23:01:34.746Z,6.66
2022-11-29T23:04:04.056Z,6.73
2022-11-29T23:06:36.777Z,6.74
2022-11-29T23:09:11.900Z,6.74
2022-11-29T23:11:38.754Z,6.75
2022-11-29T23:14:05.223Z,6.75
2022-11-29T23:16:32.803Z,6.73
2022-11-29T23:19:00.299Z,6.77
2022-11-29T23:21:29.882Z,6.76
2022-11-29T23:23:57.210Z,6.75
2022-11-29T23:26:37.263Z,6.78
2022-11-29T23:29:05.454Z,6.72
2022-11-29T23:31:32.687Z,6.78
2022-11-29T23:33:59.179Z,6.79
2022-11-29T23:36:25.849Z,6.80
2022-11-29T23:38:52.455Z,6.78
2022-11-29T23:41:19.274Z,6.82
2022-11-29T23:43:45.938Z,6.82
2022-11-29T23:46:16.309Z,6.82
2022-11-29T23:48:43.875Z,6.81
2022-11-29T23:51:11.081Z,6.83
2022-11-29T23:53:37.806Z,6.83
2022-11-29T23:56:12.073Z,6.83
2022-11-29T23:58:39.099Z,6.85
